createdAt,value
2022-08-19T00:00:43.179Z,0.00
2022-08-19T00:01:43.566Z,0.00
2022-08-19T00:02:50.392Z,0.00
2022-08-19T00:03:45.140Z,0.00
2022-08-19T00:04:44.456Z,0.00
2022-08-19T00:05:44.676Z,0.00
2022-08-19T00:06:45.060Z,0.00
2022-08-19T00:07:45.300Z,0.00
2022-08-19T00:08:45.519Z,0.00
2022-08-19T00:09:45.906Z,0.00
2022-08-19T00:10:46.150Z,0.00
2022-08-19T00:11:46.418Z,0.00
2022-08-19T00:12:47.010Z,0.00
2022-08-19T00:13:46.992Z,0.00
2022-08-19T00:14:47.237Z,0.00
2022-08-19T00:15:47.570Z,0.00
2022-08-19T00:16:47.796Z,0.00
2022-08-19T00:17:48.003Z,0.00
2022-08-19T00:18:48.355Z,0.00
2022-08-19T00:19:48.567Z,0.00
2022-08-19T00:20:48.935Z,0.00
2022-08-19T00:21:49.167Z,0.00
2022-08-19T00:22:49.395Z,0.00
2022-08-19T00:23:49.748Z,0.00
2022-08-19T00:24:50.975Z,0.00
2022-08-19T00:25:50.246Z,0.00
2022-08-19T00:26:50.607Z,0.00
2022-08-19T00:27:50.827Z,0.00
2022-08-19T00:28:51.169Z,0.00
2022-08-19T00:29:52.403Z,0.00
2022-08-19T00:30:51.779Z,0.00
2022-08-19T00:31:52.027Z,0.00
2022-08-19T00:32:52.380Z,0.00
2022-08-19T00:33:52.608Z,0.00
2022-08-19T00:34:52.824Z,0.00
2022-08-19T00:35:56.112Z,0.00
2022-08-19T00:36:53.500Z,0.00
2022-08-19T00:37:53.732Z,0.00
2022-08-19T00:38:54.082Z,0.00
2022-08-19T00:39:54.390Z,0.00
2022-08-19T00:40:54.586Z,0.00
2022-08-19T00:41:54.943Z,0.00
2022-08-19T00:42:55.199Z,0.00
2022-08-19T00:43:55.393Z,0.00
2022-08-19T00:44:55.745Z,0.00
2022-08-19T00:45:56.079Z,0.00
2022-08-19T00:46:58.431Z,0.00
2022-08-19T00:47:56.720Z,0.00
2022-08-19T00:48:57.071Z,0.00
2022-08-19T00:49:57.411Z,0.00
2022-08-19T00:50:57.758Z,0.00
2022-08-19T00:51:58.089Z,0.00
2022-08-19T00:52:58.439Z,0.00
2022-08-19T00:53:58.778Z,0.00
2022-08-19T00:54:59.121Z,0.00
2022-08-19T00:55:59.477Z,0.00
2022-08-19T00:56:59.704Z,0.00
2022-08-19T00:58:00.039Z,0.00
2022-08-19T00:59:00.380Z,0.00
2022-08-19T01:00:03.058Z,0.00
2022-08-19T01:01:01.004Z,0.00
2022-08-19T01:02:01.351Z,0.00
2022-08-19T01:03:01.755Z,0.00
2022-08-19T01:04:01.945Z,0.00
2022-08-19T01:05:02.307Z,0.00
2022-08-19T01:06:02.536Z,0.00
2022-08-19T01:07:02.786Z,0.00
2022-08-19T01:08:03.035Z,0.00
2022-08-19T01:09:03.326Z,0.00
2022-08-19T01:10:03.547Z,0.00
2022-08-19T01:11:03.955Z,0.00
2022-08-19T01:12:04.204Z,0.00
2022-08-19T01:13:04.431Z,0.00
2022-08-19T01:14:04.757Z,0.00
2022-08-19T01:15:05.093Z,0.00
2022-08-19T01:16:05.459Z,0.00
2022-08-19T01:17:05.698Z,0.00
2022-08-19T01:18:05.904Z,0.00
2022-08-19T01:19:06.253Z,0.00
2022-08-19T01:20:06.491Z,0.00
2022-08-19T01:21:06.720Z,0.00
2022-08-19T01:22:14.441Z,0.00
2022-08-19T01:23:08.360Z,0.00
2022-08-19T01:24:07.633Z,0.00
2022-08-19T01:25:09.507Z,0.00
2022-08-19T01:26:09.314Z,0.00
2022-08-19T01:27:08.613Z,0.00
2022-08-19T01:28:11.101Z,0.00
2022-08-19T01:29:09.136Z,0.00
2022-08-19T01:30:09.379Z,0.00
2022-08-19T01:31:09.737Z,0.00
2022-08-19T01:32:09.947Z,0.00
2022-08-19T01:33:11.285Z,0.00
2022-08-19T01:34:10.558Z,0.00
2022-08-19T01:35:10.948Z,0.00
2022-08-19T01:36:11.219Z,0.00
2022-08-19T01:37:11.457Z,0.00
2022-08-19T01:38:11.682Z,0.00
2022-08-19T01:39:12.033Z,0.00
2022-08-19T01:40:12.284Z,0.00
2022-08-19T01:41:12.526Z,0.00
2022-08-19T01:42:12.738Z,0.00
2022-08-19T01:43:13.102Z,0.00
2022-08-19T01:44:18.551Z,0.00
2022-08-19T01:45:14.680Z,0.00
2022-08-19T01:46:13.954Z,0.00
2022-08-19T01:47:14.181Z,0.00
2022-08-19T01:48:14.533Z,0.00
2022-08-19T01:49:14.745Z,0.00
2022-08-19T01:50:15.087Z,0.00
2022-08-19T01:51:15.444Z,0.00
2022-08-19T01:52:15.672Z,0.00
2022-08-19T01:53:15.998Z,0.00
2022-08-19T01:54:23.215Z,0.00
2022-08-19T01:55:17.674Z,0.00
2022-08-19T01:56:16.957Z,0.00
2022-08-19T01:57:17.197Z,0.00
2022-08-19T01:58:17.433Z,0.00
2022-08-19T01:59:17.649Z,0.00
2022-08-19T02:00:17.979Z,0.00
2022-08-19T02:01:18.391Z,0.00
2022-08-19T02:02:18.621Z,0.00
2022-08-19T02:03:18.885Z,0.00
2022-08-19T02:04:19.142Z,0.00
2022-08-19T02:05:19.454Z,0.00
2022-08-19T02:06:19.691Z,0.00
2022-08-19T02:07:21.016Z,0.00
2022-08-19T02:08:20.302Z,0.00
2022-08-19T02:09:20.535Z,0.00
2022-08-19T02:10:20.766Z,0.00
2022-08-19T02:11:21.007Z,0.00
2022-08-19T02:12:21.213Z,0.00
2022-08-19T02:13:21.556Z,0.00
2022-08-19T02:14:22.887Z,0.00
2022-08-19T02:15:22.155Z,0.00
2022-08-19T02:16:22.486Z,0.00
2022-08-19T02:17:22.826Z,0.00
2022-08-19T02:18:23.174Z,0.00
2022-08-19T02:19:24.488Z,0.00
2022-08-19T02:20:23.778Z,0.00
2022-08-19T02:21:24.007Z,0.00
2022-08-19T02:22:24.238Z,0.00
2022-08-19T02:23:24.462Z,0.00
2022-08-19T02:24:24.788Z,0.00
2022-08-19T02:25:25.148Z,0.00
2022-08-19T02:26:25.369Z,0.00
2022-08-19T02:27:25.602Z,0.00
2022-08-19T02:28:25.820Z,0.00
2022-08-19T02:29:26.181Z,0.00
2022-08-19T02:30:26.413Z,0.00
2022-08-19T02:31:26.668Z,0.00
2022-08-19T02:32:26.916Z,0.00
2022-08-19T02:33:27.152Z,0.00
2022-08-19T02:34:27.362Z,0.00
2022-08-19T02:35:27.763Z,0.00
2022-08-19T02:36:27.987Z,0.00
2022-08-19T02:37:28.324Z,0.00
2022-08-19T02:38:28.681Z,0.00
2022-08-19T02:39:29.013Z,0.00
2022-08-19T02:40:29.255Z,0.00
2022-08-19T02:41:29.465Z,0.00
2022-08-19T02:42:29.826Z,0.00
2022-08-19T02:43:33.838Z,0.00
2022-08-19T02:44:31.933Z,0.00
2022-08-19T02:45:30.636Z,0.00
2022-08-19T02:46:30.839Z,0.00
2022-08-19T02:47:31.202Z,0.00
2022-08-19T02:48:31.411Z,0.00
2022-08-19T02:49:34.587Z,0.00
2022-08-19T02:50:32.069Z,0.00
2022-08-19T02:51:32.415Z,0.00
2022-08-19T02:52:32.759Z,0.00
2022-08-19T02:53:32.970Z,0.00
2022-08-19T02:54:33.332Z,0.00
2022-08-19T02:55:33.552Z,0.00
2022-08-19T02:56:34.922Z,0.00
2022-08-19T02:57:34.170Z,0.00
2022-08-19T02:58:34.522Z,0.00
2022-08-19T02:59:34.724Z,0.00
2022-08-19T03:00:35.064Z,0.00
2022-08-19T03:01:36.431Z,0.00
2022-08-19T03:02:35.723Z,0.00
2022-08-19T03:03:35.967Z,0.00
2022-08-19T03:04:36.186Z,0.00
2022-08-19T03:05:48.248Z,0.00
2022-08-19T03:06:37.867Z,0.00
2022-08-19T03:07:37.157Z,0.00
2022-08-19T03:08:44.976Z,0.00
2022-08-19T03:09:37.777Z,0.00
2022-08-19T03:10:38.106Z,0.00
2022-08-19T03:11:38.370Z,0.00
2022-08-19T03:12:38.689Z,0.00
2022-08-19T03:13:38.998Z,0.00
2022-08-19T03:14:39.321Z,0.00
2022-08-19T03:15:39.654Z,0.00
2022-08-19T03:16:39.960Z,0.00
2022-08-19T03:17:40.269Z,0.00
2022-08-19T03:18:40.603Z,0.00
2022-08-19T03:19:40.908Z,0.00
2022-08-19T03:20:41.245Z,0.00
2022-08-19T03:21:41.561Z,4.00
2022-08-19T03:22:41.871Z,0.00
2022-08-19T03:23:42.190Z,0.00
2022-08-19T03:24:42.532Z,4.00
2022-08-19T03:25:42.844Z,4.00
2022-08-19T03:26:43.163Z,4.00
2022-08-19T03:27:43.473Z,4.00
2022-08-19T03:28:47.711Z,4.00
2022-08-19T03:29:45.106Z,4.00
2022-08-19T03:30:44.347Z,4.00
2022-08-19T03:31:51.282Z,4.00
2022-08-19T03:32:46.027Z,4.00
2022-08-19T03:33:46.274Z,8.00
2022-08-19T03:34:45.552Z,8.00
2022-08-19T03:35:45.847Z,4.00
2022-08-19T03:36:46.158Z,8.00
2022-08-19T03:37:46.468Z,8.00
2022-08-19T03:38:46.813Z,12.00
2022-08-19T03:39:47.152Z,12.00
2022-08-19T03:40:47.470Z,16.00
2022-08-19T03:41:48.554Z,12.00
2022-08-19T03:42:49.449Z,12.00
2022-08-19T03:43:48.400Z,12.00
2022-08-19T03:44:48.740Z,12.00
2022-08-19T03:45:49.070Z,16.00
2022-08-19T03:46:49.400Z,16.00
2022-08-19T03:47:49.734Z,24.00
2022-08-19T03:48:50.054Z,28.00
2022-08-19T03:49:50.392Z,32.00
2022-08-19T03:50:50.742Z,36.00
2022-08-19T03:51:51.061Z,40.00
2022-08-19T03:52:51.555Z,48.00
2022-08-19T03:53:51.694Z,56.00
2022-08-19T03:54:52.037Z,64.00
2022-08-19T03:55:52.360Z,72.00
2022-08-19T03:56:52.708Z,84.00
2022-08-19T03:57:57.361Z,92.00
2022-08-19T03:58:54.325Z,104.00
2022-08-19T03:59:53.641Z,124.00
2022-08-19T04:00:53.895Z,136.00
2022-08-19T04:01:54.128Z,160.00
2022-08-19T04:03:00.326Z,188.00
2022-08-19T04:03:55.659Z,216.00
2022-08-19T04:04:54.890Z,252.00
2022-08-19T04:05:55.121Z,288.00
2022-08-19T04:06:55.366Z,328.00
2022-08-19T04:07:55.685Z,364.00
2022-08-19T04:08:56.034Z,392.00
2022-08-19T04:09:56.374Z,424.00
2022-08-19T04:10:56.711Z,464.00
2022-08-19T04:11:57.070Z,504.00
2022-08-19T04:12:57.414Z,548.00
2022-08-19T04:13:57.763Z,600.00
2022-08-19T04:14:58.019Z,652.00
2022-08-19T04:15:58.204Z,700.00
2022-08-19T04:16:58.556Z,736.00
2022-08-19T04:17:58.892Z,780.00
2022-08-19T04:18:59.771Z,812.00
2022-08-19T04:19:59.563Z,844.00
2022-08-19T04:20:59.867Z,872.00
2022-08-19T04:22:00.091Z,892.00
2022-08-19T04:23:00.435Z,900.00
2022-08-19T04:24:00.774Z,892.00
2022-08-19T04:25:01.138Z,872.00
2022-08-19T04:26:01.358Z,840.00
2022-08-19T04:27:01.659Z,796.00
2022-08-19T04:28:01.999Z,748.00
2022-08-19T04:29:02.340Z,696.00
2022-08-19T04:30:02.698Z,648.00
2022-08-19T04:31:02.943Z,620.00
2022-08-19T04:32:09.312Z,608.00
2022-08-19T04:33:04.501Z,612.00
2022-08-19T04:34:03.772Z,644.00
2022-08-19T04:35:16.787Z,708.00
2022-08-19T04:36:05.290Z,780.00
2022-08-19T04:37:04.587Z,864.00
2022-08-19T04:38:04.844Z,932.00
2022-08-19T04:39:05.173Z,1004.00
2022-08-19T04:40:05.631Z,1064.00
2022-08-19T04:41:05.774Z,1096.00
2022-08-19T04:42:06.006Z,1132.00
2022-08-19T04:43:06.263Z,1148.00
2022-08-19T04:44:06.485Z,1132.00
2022-08-19T04:45:09.220Z,1048.00
2022-08-19T04:46:07.052Z,944.00
2022-08-19T04:47:10.884Z,868.00
2022-08-19T04:48:26.719Z,804.00
2022-08-19T04:49:13.181Z,736.00
2022-08-19T04:50:08.163Z,684.00
2022-08-19T04:51:08.479Z,644.00
2022-08-19T04:52:08.689Z,632.00
2022-08-19T04:53:09.039Z,624.00
2022-08-19T04:54:09.279Z,612.00
2022-08-19T04:55:09.511Z,596.00
2022-08-19T04:56:09.839Z,588.00
2022-08-19T04:57:10.087Z,592.00
2022-08-19T04:58:10.433Z,592.00
2022-08-19T04:59:10.679Z,616.00
2022-08-19T05:00:10.901Z,668.00
2022-08-19T05:01:11.284Z,756.00
2022-08-19T05:02:11.544Z,812.00
2022-08-19T05:03:11.874Z,856.00
2022-08-19T05:04:12.243Z,928.00
2022-08-19T05:05:12.463Z,960.00
2022-08-19T05:06:12.804Z,964.00
2022-08-19T05:07:13.154Z,960.00
2022-08-19T05:08:13.498Z,960.00
2022-08-19T05:09:13.775Z,976.00
2022-08-19T05:10:13.996Z,952.00
2022-08-19T05:11:14.347Z,912.00
2022-08-19T05:12:14.682Z,876.00
2022-08-19T05:13:15.028Z,864.00
2022-08-19T05:14:15.384Z,844.00
2022-08-19T05:15:15.592Z,820.00
2022-08-19T05:16:15.952Z,796.00
2022-08-19T05:17:37.550Z,772.00
2022-08-19T05:18:17.479Z,756.00
2022-08-19T05:19:16.799Z,748.00
2022-08-19T05:20:17.009Z,752.00
2022-08-19T05:21:17.379Z,780.00
2022-08-19T05:22:17.621Z,832.00
2022-08-19T05:23:22.122Z,892.00
2022-08-19T05:24:18.092Z,936.00
2022-08-19T05:25:18.314Z,968.00
2022-08-19T05:26:18.662Z,992.00
2022-08-19T05:27:19.010Z,1016.00
2022-08-19T05:28:19.360Z,1020.00
2022-08-19T05:29:19.603Z,1012.00
2022-08-19T05:30:20.378Z,1008.00
2022-08-19T05:31:21.185Z,996.00
2022-08-19T05:32:20.459Z,964.00
2022-08-19T05:33:20.802Z,948.00
2022-08-19T05:34:21.156Z,936.00
2022-08-19T05:35:21.397Z,932.00
2022-08-19T05:36:21.617Z,940.00
2022-08-19T05:37:21.967Z,940.00
2022-08-19T05:38:22.206Z,936.00
2022-08-19T05:39:22.581Z,936.00
2022-08-19T05:40:22.840Z,948.00
2022-08-19T05:41:23.097Z,988.00
2022-08-19T05:42:23.329Z,1056.00
2022-08-19T05:43:23.579Z,1136.00
2022-08-19T05:44:23.810Z,1208.00
2022-08-19T05:45:24.048Z,1280.00
2022-08-19T05:46:27.955Z,1364.00
2022-08-19T05:47:24.581Z,1460.00
2022-08-19T05:48:24.848Z,1572.00
2022-08-19T05:49:25.092Z,1688.00
2022-08-19T05:50:25.327Z,1800.00
2022-08-19T05:51:28.940Z,1916.00
2022-08-19T05:52:26.425Z,1992.00
2022-08-19T05:53:26.189Z,2012.00
2022-08-19T05:54:26.460Z,2000.00
2022-08-19T05:55:26.675Z,2000.00
2022-08-19T05:56:26.910Z,2028.00
2022-08-19T05:57:27.138Z,2076.00
2022-08-19T05:58:28.225Z,2168.00
2022-08-19T05:59:27.699Z,2280.00
2022-08-19T06:00:28.007Z,2400.00
2022-08-19T06:01:28.228Z,2512.00
2022-08-19T06:02:28.496Z,2572.00
2022-08-19T06:03:28.747Z,2632.00
2022-08-19T06:04:28.979Z,2772.00
2022-08-19T06:05:29.223Z,3004.00
2022-08-19T06:06:29.452Z,3264.00
2022-08-19T06:07:29.713Z,3400.00
2022-08-19T06:08:34.133Z,3476.00
2022-08-19T06:09:31.270Z,3552.00
2022-08-19T06:10:30.559Z,3612.00
2022-08-19T06:11:30.794Z,3620.00
2022-08-19T06:12:31.023Z,3720.00
2022-08-19T06:13:33.382Z,3896.00
2022-08-19T06:14:31.612Z,4160.00
2022-08-19T06:15:31.842Z,4476.00
2022-08-19T06:16:32.083Z,4760.00
2022-08-19T06:17:32.639Z,4996.00
2022-08-19T06:18:32.623Z,5232.00
2022-08-19T06:19:32.862Z,5440.00
2022-08-19T06:20:54.405Z,5588.00
2022-08-19T06:21:34.399Z,5652.00
2022-08-19T06:22:33.690Z,5688.00
2022-08-19T06:23:33.927Z,5716.00
2022-08-19T06:24:34.169Z,5844.00
2022-08-19T06:25:34.408Z,6028.00
2022-08-19T06:26:34.669Z,7076.00
2022-08-19T06:27:34.893Z,7848.00
2022-08-19T06:28:35.129Z,11704.00
2022-08-19T06:29:35.393Z,11436.00
2022-08-19T06:30:35.642Z,12116.00
2022-08-19T06:31:35.880Z,8816.00
2022-08-19T06:32:39.850Z,8296.00
2022-08-19T06:33:37.422Z,8332.00
2022-08-19T06:34:36.755Z,8916.00
2022-08-19T06:35:37.066Z,10276.00
2022-08-19T06:36:37.331Z,11112.00
2022-08-19T06:37:39.723Z,11604.00
2022-08-19T06:38:37.814Z,12040.00
2022-08-19T06:39:38.163Z,12236.00
2022-08-19T06:40:38.425Z,12464.00
2022-08-19T06:41:43.593Z,12464.00
2022-08-19T06:42:39.987Z,12164.00
2022-08-19T06:43:42.236Z,11780.00
2022-08-19T06:44:42.483Z,11540.00
2022-08-19T06:45:39.958Z,11428.00
2022-08-19T06:46:42.139Z,11120.00
2022-08-19T06:47:40.551Z,10976.00
2022-08-19T06:48:45.429Z,10860.00
2022-08-19T06:49:42.042Z,10544.00
2022-08-19T06:50:41.330Z,9780.00
2022-08-19T06:51:42.446Z,9020.00
2022-08-19T06:52:41.880Z,8760.00
2022-08-19T06:53:42.195Z,8564.00
2022-08-19T06:54:53.727Z,8164.00
2022-08-19T06:55:44.524Z,7816.00
2022-08-19T06:56:43.019Z,7528.00
2022-08-19T06:57:43.246Z,7324.00
2022-08-19T06:58:43.484Z,6984.00
2022-08-19T06:59:43.727Z,6792.00
2022-08-19T07:00:43.968Z,6584.00
2022-08-19T07:01:44.300Z,6332.00
2022-08-19T07:02:48.252Z,6140.00
2022-08-19T07:03:45.838Z,5952.00
2022-08-19T07:04:45.099Z,5752.00
2022-08-19T07:05:45.895Z,5624.00
2022-08-19T07:06:45.639Z,5548.00
2022-08-19T07:07:47.688Z,5512.00
2022-08-19T07:08:46.283Z,5404.00
2022-08-19T07:09:57.909Z,5208.00
2022-08-19T07:10:47.911Z,4932.00
2022-08-19T07:11:47.202Z,4608.00
2022-08-19T07:12:47.553Z,4252.00
2022-08-19T07:13:47.804Z,3892.00
2022-08-19T07:14:48.052Z,3548.00
2022-08-19T07:15:48.294Z,3260.00
2022-08-19T07:16:48.534Z,3060.00
2022-08-19T07:17:52.393Z,2908.00
2022-08-19T07:18:49.107Z,2808.00
2022-08-19T07:19:49.366Z,2812.00
2022-08-19T07:20:49.597Z,2960.00
2022-08-19T07:21:49.827Z,3080.00
2022-08-19T07:22:50.167Z,3044.00
2022-08-19T07:23:50.418Z,2892.00
2022-08-19T07:24:51.494Z,2660.00
2022-08-19T07:25:53.137Z,2504.00
2022-08-19T07:26:51.655Z,2404.00
2022-08-19T07:27:54.597Z,2332.00
2022-08-19T07:28:52.925Z,2308.00
2022-08-19T07:29:57.159Z,2352.00
2022-08-19T07:30:53.412Z,2424.00
2022-08-19T07:31:52.691Z,2500.00
2022-08-19T07:32:52.961Z,2544.00
2022-08-19T07:33:54.766Z,2560.00
2022-08-19T07:34:53.525Z,2460.00
2022-08-19T07:35:53.742Z,2352.00
2022-08-19T07:36:54.012Z,2344.00
2022-08-19T07:37:54.394Z,2484.00
2022-08-19T07:38:54.475Z,2584.00
2022-08-19T07:39:54.805Z,2548.00
2022-08-19T07:40:55.071Z,2392.00
2022-08-19T07:41:55.313Z,2236.00
2022-08-19T07:42:55.574Z,2092.00
2022-08-19T07:43:55.874Z,1956.00
2022-08-19T07:44:56.165Z,1780.00
2022-08-19T07:45:56.553Z,1604.00
2022-08-19T07:46:56.761Z,1492.00
2022-08-19T07:47:57.032Z,1468.00
2022-08-19T07:48:57.309Z,1528.00
2022-08-19T07:49:57.571Z,1764.00
2022-08-19T07:50:57.817Z,2048.00
2022-08-19T07:51:58.114Z,2276.00
2022-08-19T07:52:58.371Z,2400.00
2022-08-19T07:53:58.652Z,2348.00
2022-08-19T07:54:58.902Z,2172.00
2022-08-19T07:55:59.152Z,1984.00
2022-08-19T07:56:59.409Z,1832.00
2022-08-19T07:57:59.665Z,1776.00
2022-08-19T07:58:59.937Z,1884.00
2022-08-19T08:00:00.297Z,2060.00
2022-08-19T08:01:00.533Z,2208.00
2022-08-19T08:02:00.852Z,2360.00
2022-08-19T08:03:01.194Z,2556.00
2022-08-19T08:04:01.458Z,2792.00
2022-08-19T08:05:01.739Z,2976.00
2022-08-19T08:06:01.997Z,2968.00
2022-08-19T08:07:02.311Z,2768.00
2022-08-19T08:08:02.598Z,2556.00
2022-08-19T08:09:02.916Z,2480.00
2022-08-19T08:10:03.575Z,2580.00
2022-08-19T08:11:03.471Z,2852.00
2022-08-19T08:12:13.320Z,3260.00
2022-08-19T08:13:09.973Z,3640.00
2022-08-19T08:14:05.525Z,3952.00
2022-08-19T08:15:04.751Z,4096.00
2022-08-19T08:16:05.017Z,4148.00
2022-08-19T08:17:11.023Z,4128.00
2022-08-19T08:18:05.645Z,4080.00
2022-08-19T08:19:07.287Z,4028.00
2022-08-19T08:20:07.197Z,4032.00
2022-08-19T08:21:06.386Z,4104.00
2022-08-19T08:22:06.634Z,4308.00
2022-08-19T08:23:06.897Z,4512.00
2022-08-19T08:24:07.168Z,4740.00
2022-08-19T08:25:07.458Z,4936.00
2022-08-19T08:26:07.708Z,5160.00
2022-08-19T08:27:11.290Z,5380.00
2022-08-19T08:28:08.196Z,5588.00
2022-08-19T08:29:12.443Z,5724.00
2022-08-19T08:30:08.749Z,5760.00
2022-08-19T08:31:09.485Z,5588.00
2022-08-19T08:32:14.236Z,4492.00
2022-08-19T08:33:10.705Z,4056.00
2022-08-19T08:34:09.896Z,3688.00
2022-08-19T08:35:10.162Z,3400.00
2022-08-19T08:36:10.461Z,3528.00
2022-08-19T08:37:10.751Z,3472.00
2022-08-19T08:38:11.035Z,3484.00
2022-08-19T08:39:11.290Z,3664.00
2022-08-19T08:40:13.322Z,3636.00
2022-08-19T08:41:12.050Z,3596.00
2022-08-19T08:42:17.660Z,3596.00
2022-08-19T08:43:13.428Z,3604.00
2022-08-19T08:44:17.343Z,3724.00
2022-08-19T08:45:13.874Z,3792.00
2022-08-19T08:46:13.146Z,4036.00
2022-08-19T08:47:13.426Z,4332.00
2022-08-19T08:48:22.450Z,4688.00
2022-08-19T08:49:14.947Z,5180.00
2022-08-19T08:50:14.147Z,5660.00
2022-08-19T08:51:14.388Z,5768.00
2022-08-19T08:52:15.788Z,5548.00
2022-08-19T08:53:15.006Z,5364.00
2022-08-19T08:54:16.219Z,5300.00
2022-08-19T08:55:15.548Z,6096.00
2022-08-19T08:56:17.020Z,6764.00
2022-08-19T08:57:16.054Z,7048.00
2022-08-19T08:58:16.499Z,6984.00
2022-08-19T08:59:16.852Z,6424.00
2022-08-19T09:00:16.851Z,5572.00
2022-08-19T09:01:17.237Z,5032.00
2022-08-19T09:02:17.399Z,5244.00
2022-08-19T09:03:17.710Z,6160.00
2022-08-19T09:04:18.353Z,7252.00
2022-08-19T09:05:18.242Z,7932.00
2022-08-19T09:06:18.635Z,8412.00
2022-08-19T09:07:34.791Z,8664.00
2022-08-19T09:08:20.324Z,8820.00
2022-08-19T09:09:19.388Z,8912.00
2022-08-19T09:10:19.749Z,9020.00
2022-08-19T09:11:42.684Z,9176.00
2022-08-19T09:12:27.056Z,9192.00
2022-08-19T09:13:21.589Z,9364.00
2022-08-19T09:14:47.466Z,9752.00
2022-08-19T09:15:22.098Z,10212.00
2022-08-19T09:16:28.042Z,10420.00
2022-08-19T09:17:22.619Z,10344.00
2022-08-19T09:18:21.972Z,10112.00
2022-08-19T09:19:22.463Z,9860.00
2022-08-19T09:20:22.491Z,9736.00
2022-08-19T09:21:25.411Z,9672.00
2022-08-19T09:22:26.012Z,9500.00
2022-08-19T09:23:26.981Z,9288.00
2022-08-19T09:24:23.663Z,9140.00
2022-08-19T09:25:27.028Z,9304.00
2022-08-19T09:26:24.116Z,9520.00
2022-08-19T09:27:42.069Z,9628.00
2022-08-19T09:28:27.049Z,9692.00
2022-08-19T09:29:24.979Z,9748.00
2022-08-19T09:30:25.226Z,9716.00
2022-08-19T09:31:25.496Z,9576.00
2022-08-19T09:32:26.497Z,9384.00
2022-08-19T09:33:26.028Z,9272.00
2022-08-19T09:34:37.985Z,9168.00
2022-08-19T09:35:28.336Z,9088.00
2022-08-19T09:36:34.576Z,9072.00
2022-08-19T09:37:28.287Z,9164.00
2022-08-19T09:38:27.585Z,9380.00
2022-08-19T09:39:35.932Z,9604.00
2022-08-19T09:40:30.229Z,9924.00
2022-08-19T09:41:28.761Z,10260.00
2022-08-19T09:42:30.485Z,10432.00
2022-08-19T09:43:33.779Z,10340.00
2022-08-19T09:44:30.344Z,9884.00
2022-08-19T09:45:29.644Z,9120.00
2022-08-19T09:46:29.906Z,8436.00
2022-08-19T09:47:30.188Z,8248.00
2022-08-19T09:48:30.439Z,8308.00
2022-08-19T09:49:30.666Z,8376.00
2022-08-19T09:50:30.907Z,8460.00
2022-08-19T09:51:31.165Z,8640.00
2022-08-19T09:52:32.524Z,8872.00
2022-08-19T09:53:31.768Z,9292.00
2022-08-19T09:54:32.070Z,9768.00
2022-08-19T09:55:32.863Z,10200.00
2022-08-19T09:56:32.571Z,10248.00
2022-08-19T09:57:32.909Z,10000.00
2022-08-19T09:58:33.209Z,9860.00
2022-08-19T09:59:33.458Z,9820.00
2022-08-19T10:00:33.739Z,9772.00
2022-08-19T10:01:34.063Z,9812.00
2022-08-19T10:02:34.270Z,9568.00
2022-08-19T10:03:34.485Z,8656.00
2022-08-19T10:04:34.755Z,9700.00
2022-08-19T10:05:35.022Z,9588.00
2022-08-19T10:06:46.283Z,9504.00
2022-08-19T10:07:36.764Z,9412.00
2022-08-19T10:08:35.834Z,9328.00
2022-08-19T10:09:36.194Z,9300.00
2022-08-19T10:10:36.368Z,9484.00
2022-08-19T10:11:39.991Z,9640.00
2022-08-19T10:12:36.895Z,9792.00
2022-08-19T10:13:37.199Z,10132.00
2022-08-19T10:14:37.472Z,10436.00
2022-08-19T10:15:47.780Z,10796.00
2022-08-19T10:16:39.786Z,10996.00
2022-08-19T10:17:38.356Z,11060.00
2022-08-19T10:18:38.640Z,10976.00
2022-08-19T10:19:39.849Z,10840.00
2022-08-19T10:20:39.178Z,10996.00
2022-08-19T10:21:40.563Z,11136.00
2022-08-19T10:22:39.796Z,11204.00
2022-08-19T10:23:40.103Z,10940.00
2022-08-19T10:24:40.379Z,10504.00
2022-08-19T10:25:40.692Z,10248.00
2022-08-19T10:26:40.992Z,10232.00
2022-08-19T10:27:43.351Z,10340.00
2022-08-19T10:28:42.614Z,10380.00
2022-08-19T10:29:46.295Z,10360.00
2022-08-19T10:30:42.146Z,10308.00
2022-08-19T10:32:02.193Z,10312.00
2022-08-19T10:32:46.282Z,10344.00
2022-08-19T10:33:53.871Z,10376.00
2022-08-19T10:34:47.872Z,10464.00
2022-08-19T10:35:56.883Z,10488.00
2022-08-19T10:36:56.386Z,10472.00
2022-08-19T10:37:57.119Z,10572.00
2022-08-19T10:38:51.226Z,10788.00
2022-08-19T10:39:45.937Z,11132.00
2022-08-19T10:40:45.279Z,11524.00
2022-08-19T10:41:45.560Z,11840.00
2022-08-19T10:42:45.845Z,12060.00
2022-08-19T10:43:46.155Z,12192.00
2022-08-19T10:44:46.436Z,12224.00
2022-08-19T10:45:52.442Z,12312.00
2022-08-19T10:46:48.951Z,12340.00
2022-08-19T10:47:47.285Z,12360.00
2022-08-19T10:48:47.599Z,12236.00
2022-08-19T10:49:47.864Z,11936.00
2022-08-19T10:50:48.154Z,11588.00
2022-08-19T10:51:48.725Z,11364.00
2022-08-19T10:52:50.364Z,11272.00
2022-08-19T10:53:49.399Z,11244.00
2022-08-19T10:54:49.397Z,11224.00
2022-08-19T10:55:49.712Z,11156.00
2022-08-19T10:56:49.974Z,10744.00
2022-08-19T10:58:02.325Z,10224.00
2022-08-19T10:58:52.028Z,9748.00
2022-08-19T10:59:50.889Z,9472.00
2022-08-19T11:00:51.544Z,9368.00
2022-08-19T11:01:51.461Z,9364.00
2022-08-19T11:02:51.662Z,9312.00
2022-08-19T11:03:51.964Z,9024.00
2022-08-19T11:04:52.385Z,8432.00
2022-08-19T11:05:52.442Z,7644.00
2022-08-19T11:06:52.764Z,6896.00
2022-08-19T11:07:53.387Z,6664.00
2022-08-19T11:08:53.355Z,5840.00
2022-08-19T11:09:53.635Z,5476.00
2022-08-19T11:10:53.915Z,5532.00
2022-08-19T11:11:54.437Z,5716.00
2022-08-19T11:12:54.546Z,5856.00
2022-08-19T11:13:54.788Z,5996.00
2022-08-19T11:14:59.075Z,6172.00
2022-08-19T11:15:55.402Z,6508.00
2022-08-19T11:16:55.787Z,7152.00
2022-08-19T11:17:56.117Z,7064.00
2022-08-19T11:18:56.173Z,6856.00
2022-08-19T11:19:56.442Z,7520.00
2022-08-19T11:20:56.731Z,8224.00
2022-08-19T11:21:57.683Z,8708.00
2022-08-19T11:22:57.304Z,9768.00
2022-08-19T11:23:57.573Z,10632.00
2022-08-19T11:24:57.825Z,10316.00
2022-08-19T11:25:58.204Z,10808.00
2022-08-19T11:26:58.390Z,9192.00
2022-08-19T11:27:58.654Z,9008.00
2022-08-19T11:28:59.443Z,8032.00
2022-08-19T11:29:59.277Z,8216.00
2022-08-19T11:30:59.454Z,8968.00
2022-08-19T11:31:59.876Z,10692.00
2022-08-19T11:33:00.010Z,9292.00
2022-08-19T11:34:00.278Z,8836.00
2022-08-19T11:35:00.568Z,6472.00
2022-08-19T11:36:00.939Z,5780.00
2022-08-19T11:37:01.250Z,6960.00
2022-08-19T11:38:01.422Z,8120.00
2022-08-19T11:39:02.042Z,7444.00
2022-08-19T11:40:02.316Z,5808.00
2022-08-19T11:41:02.398Z,7552.00
2022-08-19T11:42:02.572Z,9940.00
2022-08-19T11:43:02.923Z,11216.00
2022-08-19T11:44:03.299Z,10564.00
2022-08-19T11:45:03.455Z,9464.00
2022-08-19T11:46:03.739Z,9324.00
2022-08-19T11:47:08.754Z,10272.00
2022-08-19T11:48:05.235Z,9020.00
2022-08-19T11:49:04.778Z,10132.00
2022-08-19T11:50:04.899Z,11248.00
2022-08-19T11:51:05.220Z,11084.00
2022-08-19T11:52:05.530Z,9468.00
2022-08-19T11:53:05.850Z,8852.00
2022-08-19T11:54:06.148Z,9200.00
2022-08-19T11:55:06.439Z,11160.00
2022-08-19T11:56:06.724Z,11516.00
2022-08-19T11:57:07.007Z,10468.00
2022-08-19T11:58:07.269Z,9816.00
2022-08-19T11:59:11.604Z,9188.00
2022-08-19T12:00:08.947Z,8356.00
2022-08-19T12:01:08.149Z,9008.00
2022-08-19T12:02:08.384Z,9948.00
2022-08-19T12:03:08.637Z,9800.00
2022-08-19T12:04:09.799Z,10628.00
2022-08-19T12:05:12.551Z,10728.00
2022-08-19T12:06:09.563Z,10840.00
2022-08-19T12:07:09.815Z,10868.00
2022-08-19T12:08:10.089Z,10384.00
2022-08-19T12:09:10.377Z,9928.00
2022-08-19T12:10:10.858Z,9860.00
2022-08-19T12:11:10.985Z,8992.00
2022-08-19T12:12:11.219Z,8260.00
2022-08-19T12:13:11.469Z,8908.00
2022-08-19T12:14:14.524Z,8604.00
2022-08-19T12:15:12.117Z,8512.00
2022-08-19T12:16:12.342Z,9292.00
2022-08-19T12:17:12.582Z,9988.00
2022-08-19T12:18:13.635Z,11676.00
2022-08-19T12:19:13.677Z,11104.00
2022-08-19T12:20:13.413Z,10164.00
2022-08-19T12:21:13.662Z,9328.00
2022-08-19T12:22:13.934Z,8448.00
2022-08-19T12:23:14.182Z,9408.00
2022-08-19T12:24:14.444Z,10564.00
2022-08-19T12:25:14.706Z,9732.00
2022-08-19T12:26:14.946Z,8532.00
2022-08-19T12:27:15.198Z,8088.00
2022-08-19T12:28:16.548Z,8356.00
2022-08-19T12:29:18.423Z,8820.00
2022-08-19T12:30:17.092Z,8400.00